createdAt,value
2022-08-25T00:00:44.547Z,1.70
2022-08-25T00:02:55.246Z,3.00
2022-08-25T00:04:58.194Z,1.30
2022-08-25T00:07:03.455Z,1.60
2022-08-25T00:09:05.879Z,1.70
2022-08-25T00:11:15.176Z,1.90
2022-08-25T00:13:16.862Z,1.60
2022-08-25T00:15:18.588Z,1.90
2022-08-25T00:17:20.264Z,3.10
2022-08-25T00:19:25.667Z,1.90
2022-08-25T00:21:28.099Z,1.70
2022-08-25T00:23:29.780Z,3.50
2022-08-25T00:25:31.424Z,2.20
2022-08-25T00:27:33.397Z,3.10
2022-08-25T00:31:40.303Z,2.80
2022-08-25T00:33:44.079Z,2.10
2022-08-25T00:35:45.754Z,4.30
2022-08-25T00:37:52.607Z,2.20
2022-08-25T00:39:57.229Z,3.00
2022-08-25T00:41:59.769Z,3.00
2022-08-25T00:44:06.516Z,3.80
2022-08-25T00:46:13.961Z,4.70
2022-08-25T00:48:15.639Z,5.10
2022-08-25T00:50:17.394Z,4.50
2022-08-25T00:52:34.795Z,3.30
2022-08-25T00:54:43.653Z,3.00
2022-08-25T00:56:45.463Z,4.20
2022-08-25T00:58:47.261Z,5.10
2022-08-25T01:00:52.284Z,4.40
2022-08-25T01:02:54.259Z,3.40
2022-08-25T01:06:58.494Z,4.30
2022-08-25T01:09:00.210Z,4.10
2022-08-25T01:11:06.725Z,4.60
2022-08-25T01:13:18.804Z,3.30
2022-08-25T01:15:21.781Z,9.80
2022-08-25T01:17:27.834Z,4.70
2022-08-25T01:19:31.472Z,4.10
2022-08-25T01:21:39.785Z,4.50
2022-08-25T01:23:42.107Z,4.80
2022-08-25T01:26:08.404Z,8.80
2022-08-25T01:28:10.201Z,11.90
2022-08-25T01:30:12.005Z,4.90
2022-08-25T01:32:15.081Z,4.80
2022-08-25T01:34:19.855Z,4.90
2022-08-25T01:36:22.485Z,4.60
2022-08-25T01:38:24.124Z,6.70
2022-08-25T01:40:25.802Z,6.90
2022-08-25T01:42:37.940Z,5.80
2022-08-25T01:44:43.480Z,5.70
2022-08-25T01:46:45.157Z,5.20
2022-08-25T01:48:46.953Z,5.20
2022-08-25T01:50:48.624Z,5.10
2022-08-25T01:53:22.533Z,5.30
2022-08-25T01:55:24.286Z,8.60
2022-08-25T01:57:26.138Z,6.40
2022-08-25T01:59:28.241Z,9.10
2022-08-25T02:01:30.481Z,7.10
2022-08-25T02:03:32.975Z,7.30
2022-08-25T02:05:34.807Z,8.90
2022-08-25T02:07:38.301Z,8.90
2022-08-25T02:09:40.587Z,7.80
2022-08-25T02:11:44.069Z,9.60
2022-08-25T02:13:45.713Z,8.00
2022-08-25T02:15:52.964Z,9.10
2022-08-25T02:17:54.639Z,10.40
2022-08-25T02:19:57.097Z,12.50
2022-08-25T02:21:59.704Z,11.50
2022-08-25T02:24:02.354Z,9.40
2022-08-25T02:26:04.690Z,9.20
2022-08-25T02:28:08.449Z,11.30
2022-08-25T02:30:10.856Z,8.90
2022-08-25T02:32:12.503Z,9.70
2022-08-25T02:34:15.316Z,8.60
2022-08-25T02:36:17.477Z,10.30
2022-08-25T02:38:19.152Z,10.00
2022-08-25T02:40:21.460Z,7.70
2022-08-25T02:42:24.449Z,8.90
2022-08-25T02:44:26.109Z,8.80
2022-08-25T02:46:28.055Z,8.80
2022-08-25T02:50:31.286Z,8.70
2022-08-25T02:52:32.984Z,10.60
2022-08-25T02:54:35.352Z,9.20
2022-08-25T02:56:37.111Z,8.00
2022-08-25T02:58:39.935Z,8.90
2022-08-25T03:00:42.069Z,9.40
2022-08-25T03:02:45.147Z,9.00
2022-08-25T03:04:47.578Z,8.70
2022-08-25T03:06:49.308Z,9.10
2022-08-25T03:08:51.989Z,8.80
2022-08-25T03:10:53.634Z,8.50
2022-08-25T03:12:55.351Z,8.70
2022-08-25T03:14:57.018Z,7.70
2022-08-25T03:16:58.720Z,9.50
2022-08-25T03:19:00.727Z,8.30
2022-08-25T03:23:07.035Z,9.20
2022-08-25T03:25:27.774Z,8.50
2022-08-25T03:27:30.482Z,8.80
2022-08-25T03:29:33.317Z,10.10
2022-08-25T03:31:35.781Z,9.10
2022-08-25T03:33:38.522Z,8.40
2022-08-25T03:35:40.855Z,8.10
2022-08-25T03:37:42.528Z,10.90
2022-08-25T03:39:44.603Z,7.50
2022-08-25T03:41:47.468Z,10.40
2022-08-25T03:43:50.223Z,9.60
2022-08-25T03:45:52.037Z,10.10
2022-08-25T03:47:54.210Z,8.40
2022-08-25T03:49:56.463Z,8.80
2022-08-25T03:51:58.178Z,8.60
2022-08-25T03:54:01.438Z,7.70
2022-08-25T03:56:03.733Z,9.30
2022-08-25T03:58:05.511Z,8.70
2022-08-25T04:02:10.113Z,9.00
2022-08-25T04:04:13.717Z,7.60
2022-08-25T04:06:16.862Z,7.30
2022-08-25T04:08:19.446Z,8.60
2022-08-25T04:10:21.450Z,8.30
2022-08-25T04:12:23.334Z,6.90
2022-08-25T04:14:26.082Z,7.60
2022-08-25T04:16:32.441Z,8.60
2022-08-25T04:18:34.393Z,7.80
2022-08-25T04:22:38.708Z,8.00
2022-08-25T04:24:40.675Z,8.00
2022-08-25T04:28:46.777Z,7.50
2022-08-25T04:30:51.994Z,7.70
2022-08-25T04:32:53.887Z,7.60
2022-08-25T04:34:55.746Z,8.60
2022-08-25T04:36:58.743Z,8.90
2022-08-25T04:39:00.443Z,8.00
2022-08-25T04:41:04.288Z,8.00
2022-08-25T04:43:05.985Z,7.40
2022-08-25T04:45:08.347Z,7.60
2022-08-25T04:47:11.215Z,7.20
2022-08-25T04:49:13.002Z,7.20
2022-08-25T04:51:20.149Z,6.60
2022-08-25T04:53:22.106Z,7.50
2022-08-25T04:57:26.290Z,7.10
2022-08-25T04:59:30.092Z,7.10
2022-08-25T05:01:32.924Z,7.30
2022-08-25T05:03:35.464Z,7.70
2022-08-25T05:05:38.134Z,7.60
2022-08-25T05:07:39.791Z,7.40
2022-08-25T05:09:41.497Z,7.10
2022-08-25T05:11:43.197Z,7.50
2022-08-25T05:13:51.505Z,6.80
2022-08-25T05:15:55.374Z,7.40
2022-08-25T05:17:57.347Z,7.70
2022-08-25T05:22:00.542Z,7.40
2022-08-25T05:24:02.336Z,6.80
2022-08-25T05:26:06.621Z,7.10
2022-08-25T05:28:08.644Z,8.60
2022-08-25T05:34:14.949Z,7.40
2022-08-25T05:36:17.142Z,9.20
2022-08-25T05:38:18.860Z,7.60
2022-08-25T05:40:21.773Z,6.80
2022-08-25T05:42:24.014Z,9.50
2022-08-25T05:44:26.048Z,7.60
2022-08-25T05:48:33.451Z,12.70
2022-08-25T05:50:35.230Z,8.60
2022-08-25T05:52:37.415Z,9.30
2022-08-25T05:54:39.961Z,10.10
2022-08-25T05:56:41.642Z,11.60
2022-08-25T05:58:43.884Z,10.60
2022-08-25T06:00:45.743Z,8.80
2022-08-25T06:02:49.581Z,9.00
2022-08-25T06:04:51.546Z,6.80
2022-08-25T06:08:56.717Z,7.80
2022-08-25T06:10:58.414Z,7.50
2022-08-25T06:13:00.356Z,7.60
2022-08-25T06:15:03.656Z,8.70
2022-08-25T06:17:07.411Z,10.50
2022-08-25T06:19:10.411Z,8.70
2022-08-25T06:21:14.274Z,12.80
2022-08-25T06:23:18.318Z,8.90
2022-08-25T06:25:22.159Z,9.00
2022-08-25T06:27:23.879Z,9.10
2022-08-25T06:29:26.234Z,8.80
2022-08-25T06:31:27.985Z,9.00
2022-08-25T06:33:29.814Z,8.50
2022-08-25T06:35:31.449Z,9.60
2022-08-25T06:37:36.004Z,9.30
2022-08-25T06:39:37.722Z,9.10
2022-08-25T06:41:39.486Z,8.50
2022-08-25T06:43:47.977Z,10.00
2022-08-25T06:45:50.872Z,8.40
2022-08-25T06:47:52.558Z,8.30
2022-08-25T06:49:54.290Z,8.80
2022-08-25T06:51:56.853Z,8.60
2022-08-25T06:53:58.594Z,9.00
2022-08-25T06:56:04.527Z,12.00
2022-08-25T06:58:11.130Z,10.10
2022-08-25T07:00:13.304Z,8.90
2022-08-25T07:04:23.570Z,8.30
2022-08-25T07:06:31.845Z,8.90
2022-08-25T07:08:34.570Z,12.00
2022-08-25T07:10:37.602Z,12.00
2022-08-25T07:12:40.038Z,8.10
2022-08-25T07:14:44.273Z,9.00
2022-08-25T07:16:55.259Z,12.40
2022-08-25T07:18:57.989Z,14.80
2022-08-25T07:21:02.055Z,9.60
2022-08-25T07:23:07.154Z,9.10
2022-08-25T07:25:11.054Z,7.50
2022-08-25T07:27:12.718Z,10.30
2022-08-25T07:29:18.617Z,8.90
2022-08-25T07:31:21.491Z,8.70
2022-08-25T07:33:31.300Z,7.60
2022-08-25T07:35:37.373Z,7.30
2022-08-25T07:37:48.765Z,7.30
2022-08-25T07:39:51.168Z,8.50
2022-08-25T07:41:53.471Z,6.80
2022-08-25T07:43:55.107Z,6.90
2022-08-25T07:45:56.798Z,8.70
2022-08-25T07:48:01.466Z,6.10
2022-08-25T07:50:05.713Z,7.30
2022-08-25T07:52:07.538Z,8.20
2022-08-25T07:54:10.725Z,7.70
2022-08-25T07:56:27.794Z,6.70
2022-08-25T07:58:29.554Z,6.90
2022-08-25T08:00:34.233Z,6.20
2022-08-25T08:02:39.129Z,6.20
2022-08-25T08:04:43.675Z,6.60
2022-08-25T08:06:48.223Z,9.90
2022-08-25T08:08:54.517Z,8.10
2022-08-25T08:11:05.289Z,6.80
2022-08-25T08:13:08.155Z,7.40
2022-08-25T08:15:12.771Z,10.90
2022-08-25T08:17:14.575Z,7.70
2022-08-25T08:19:18.046Z,8.00
2022-08-25T08:21:28.139Z,8.50
2022-08-25T08:23:30.554Z,7.60
2022-08-25T08:25:32.878Z,7.00
2022-08-25T08:27:35.010Z,7.20
2022-08-25T08:29:38.833Z,7.70
2022-08-25T08:31:40.737Z,8.30
2022-08-25T08:33:53.113Z,10.20
2022-08-25T08:36:10.050Z,7.00
2022-08-25T08:38:18.461Z,5.80
2022-08-25T08:40:22.977Z,5.70
2022-08-25T08:42:47.945Z,5.30
2022-08-25T08:45:09.719Z,7.30
2022-08-25T08:47:36.422Z,6.30
2022-08-25T08:49:58.255Z,8.10
2022-08-25T08:52:02.764Z,10.40
2022-08-25T08:54:29.055Z,6.70
2022-08-25T08:56:48.195Z,6.00
2022-08-25T08:58:56.711Z,6.80
2022-08-25T09:01:01.619Z,4.40
2022-08-25T09:03:17.487Z,5.40
2022-08-25T09:05:24.193Z,6.90
2022-08-25T09:07:30.890Z,2.20
2022-08-25T09:09:35.790Z,2.30
2022-08-25T09:12:11.075Z,5.00
2022-08-25T09:14:40.137Z,2.50
2022-08-25T09:17:06.079Z,2.60
2022-08-25T09:19:33.830Z,2.40
2022-08-25T09:21:43.793Z,4.40
2022-08-25T09:23:55.938Z,2.30
2022-08-25T09:26:21.123Z,4.30
2022-08-25T09:28:29.601Z,4.10
2022-08-25T09:31:00.710Z,5.60
2022-08-25T09:33:05.252Z,6.80
2022-08-25T09:35:18.872Z,4.90
2022-08-25T09:37:21.357Z,2.50
2022-08-25T09:39:23.418Z,4.00
2022-08-25T09:41:43.682Z,2.60
2022-08-25T09:43:53.671Z,3.60
2022-08-25T09:46:14.003Z,3.70
2022-08-25T09:48:43.104Z,4.50
2022-08-25T09:50:46.636Z,4.40
2022-08-25T09:52:53.410Z,2.60
2022-08-25T09:54:59.867Z,4.90
2022-08-25T09:57:02.159Z,3.90
2022-08-25T09:59:34.751Z,5.10
2022-08-25T10:01:52.166Z,4.20
2022-08-25T10:03:58.947Z,3.40
2022-08-25T10:06:13.186Z,14.90
2022-08-25T10:08:31.454Z,5.00
2022-08-25T10:10:36.148Z,3.20
2022-08-25T10:12:42.578Z,6.90
2022-08-25T10:14:44.737Z,4.70
2022-08-25T10:16:47.930Z,3.60
2022-08-25T10:19:21.847Z,3.50
2022-08-25T10:21:24.477Z,5.40
2022-08-25T10:23:27.141Z,3.80
2022-08-25T10:25:30.225Z,5.30
2022-08-25T10:27:39.074Z,4.80
2022-08-25T10:29:56.127Z,8.10
2022-08-25T10:32:12.228Z,5.60
2022-08-25T10:34:36.054Z,6.00
2022-08-25T10:37:09.494Z,5.20
2022-08-25T10:39:36.821Z,5.40
2022-08-25T10:41:59.365Z,5.00
2022-08-25T10:44:01.985Z,7.70
2022-08-25T10:46:04.013Z,5.40
2022-08-25T10:48:19.687Z,8.90
2022-08-25T10:50:32.725Z,6.60
2022-08-25T10:52:56.506Z,7.20
2022-08-25T10:55:20.496Z,6.80
2022-08-25T10:57:59.926Z,7.50
2022-08-25T11:00:11.438Z,5.80
2022-08-25T11:02:38.665Z,5.30
2022-08-25T11:04:53.251Z,6.70
2022-08-25T11:07:13.219Z,4.60
2022-08-25T11:09:21.842Z,5.80
2022-08-25T11:11:31.947Z,5.50
2022-08-25T11:13:53.508Z,4.00
2022-08-25T11:16:16.505Z,5.00
2022-08-25T11:18:20.296Z,6.30
2022-08-25T11:20:27.570Z,6.20
2022-08-25T11:22:37.738Z,6.70
2022-08-25T11:24:43.290Z,4.40
2022-08-25T11:26:53.168Z,4.30
2022-08-25T11:29:14.234Z,6.70
2022-08-25T11:31:19.396Z,4.70
2022-08-25T11:33:24.433Z,5.70
2022-08-25T11:35:31.381Z,5.00
2022-08-25T11:37:33.799Z,8.30
2022-08-25T11:39:41.623Z,5.20
2022-08-25T11:42:13.972Z,5.20
2022-08-25T11:44:38.220Z,6.90
2022-08-25T11:46:46.016Z,5.50
2022-08-25T11:49:08.206Z,6.60
2022-08-25T11:51:14.479Z,6.70
2022-08-25T11:53:25.143Z,9.80
2022-08-25T11:55:34.714Z,6.20
2022-08-25T11:57:36.970Z,8.40
2022-08-25T11:59:51.606Z,10.40
2022-08-25T12:01:56.301Z,6.60
2022-08-25T12:04:29.419Z,6.90
2022-08-25T12:06:34.173Z,9.20
2022-08-25T12:09:00.083Z,7.30
2022-08-25T12:11:10.667Z,9.20
2022-08-25T12:13:43.538Z,5.70
2022-08-25T12:15:48.045Z,6.60
2022-08-25T12:18:29.471Z,6.90
2022-08-25T12:20:52.881Z,9.20
2022-08-25T12:23:01.353Z,6.40
2022-08-25T12:25:16.616Z,8.90
2022-08-25T12:27:27.205Z,6.90
2022-08-25T12:29:42.163Z,8.20
2022-08-25T12:31:52.326Z,7.60
2022-08-25T12:34:26.845Z,6.70
2022-08-25T12:37:13.475Z,8.20
2022-08-25T12:39:19.429Z,6.70
2022-08-25T12:41:27.526Z,8.30
2022-08-25T12:43:37.854Z,6.70
2022-08-25T12:45:48.432Z,8.20
2022-08-25T12:47:53.295Z,7.10
2022-08-25T12:50:32.492Z,7.20
2022-08-25T12:52:38.474Z,8.80
2022-08-25T12:54:57.928Z,10.20
2022-08-25T12:57:03.020Z,7.70
2022-08-25T12:59:20.614Z,10.40
2022-08-25T13:01:41.033Z,7.10
2022-08-25T13:06:17.296Z,11.90
2022-08-25T13:08:37.285Z,8.40
2022-08-25T13:10:42.792Z,7.00
2022-08-25T13:12:52.766Z,6.70
2022-08-25T13:14:56.944Z,6.40
2022-08-25T13:17:00.627Z,7.00
2022-08-25T13:19:05.610Z,8.40
2022-08-25T13:21:25.078Z,10.20
2022-08-25T13:23:29.133Z,8.10
2022-08-25T13:25:33.279Z,6.00
2022-08-25T13:27:37.244Z,5.90
2022-08-25T13:29:51.242Z,5.60
2022-08-25T13:32:02.393Z,6.70
2022-08-25T13:34:19.253Z,5.80
2022-08-25T13:36:42.261Z,7.20
2022-08-25T13:38:48.151Z,8.00
2022-08-25T13:40:49.903Z,7.50
2022-08-25T13:42:56.252Z,7.20
2022-08-25T13:44:59.666Z,5.30
2022-08-25T13:47:17.022Z,6.80
2022-08-25T13:49:26.809Z,7.20
2022-08-25T13:51:31.403Z,7.90
2022-08-25T13:53:33.748Z,6.20
2022-08-25T13:57:53.257Z,5.60
2022-08-25T14:02:06.434Z,5.50
2022-08-25T14:04:39.846Z,5.10
2022-08-25T14:07:33.783Z,5.10
2022-08-25T14:09:40.200Z,6.10
2022-08-25T14:11:46.855Z,6.00
2022-08-25T14:14:09.874Z,5.10
2022-08-25T14:18:28.974Z,4.60
2022-08-25T14:20:33.574Z,5.10
2022-08-25T14:22:35.340Z,4.90
2022-08-25T14:24:39.295Z,5.40
2022-08-25T14:26:53.740Z,7.10
2022-08-25T14:28:56.214Z,4.60
2022-08-25T14:31:08.694Z,5.40
2022-08-25T14:33:11.013Z,4.80
2022-08-25T14:35:17.373Z,7.80
2022-08-25T14:37:20.435Z,5.10
2022-08-25T14:39:27.309Z,5.10
2022-08-25T14:41:29.606Z,5.30
2022-08-25T14:45:37.546Z,4.40
2022-08-25T14:47:39.467Z,6.00
2022-08-25T14:51:43.422Z,6.80
2022-08-25T14:55:46.894Z,3.00
2022-08-25T14:57:48.997Z,3.00
2022-08-25T14:59:51.930Z,3.10
2022-08-25T15:02:00.098Z,2.70
2022-08-25T15:04:09.088Z,3.00
2022-08-25T15:06:13.554Z,3.20
2022-08-25T15:08:34.570Z,2.60
2022-08-25T15:10:37.077Z,2.30
2022-08-25T15:12:47.517Z,2.40
2022-08-25T15:14:50.024Z,3.30
2022-08-25T15:18:54.875Z,2.80
2022-08-25T15:20:57.181Z,7.20
2022-08-25T15:22:59.118Z,2.40
2022-08-25T15:27:05.601Z,3.20
2022-08-25T15:29:07.380Z,3.70
2022-08-25T15:31:12.380Z,2.40
2022-08-25T15:33:14.636Z,2.40
2022-08-25T15:35:16.500Z,1.90
2022-08-25T15:39:20.526Z,1.80
2022-08-25T15:41:27.652Z,3.30
2022-08-25T15:43:29.682Z,1.60
2022-08-25T15:45:32.978Z,1.60
2022-08-25T15:47:34.800Z,1.90
2022-08-25T15:51:42.097Z,1.80
2022-08-25T15:53:43.992Z,2.40
2022-08-25T15:57:49.668Z,1.70
2022-08-25T15:59:52.566Z,4.10
2022-08-25T16:01:55.708Z,2.00
2022-08-25T16:04:00.324Z,1.80
2022-08-25T16:06:04.111Z,2.00
2022-08-25T16:08:06.592Z,2.10
2022-08-25T16:10:19.381Z,1.80
2022-08-25T16:12:22.291Z,2.00
2022-08-25T16:14:23.900Z,2.10
2022-08-25T16:16:28.607Z,1.70
2022-08-25T16:18:30.310Z,1.60
2022-08-25T16:20:34.405Z,1.90
2022-08-25T16:22:36.129Z,2.00
2022-08-25T16:24:47.048Z,2.10
2022-08-25T16:26:50.131Z,1.70
2022-08-25T16:28:53.844Z,2.50
2022-08-25T16:30:56.176Z,3.10
2022-08-25T16:32:57.925Z,2.40
2022-08-25T16:34:59.693Z,2.00
2022-08-25T16:37:01.762Z,1.80
2022-08-25T16:39:03.994Z,1.50
2022-08-25T16:41:18.467Z,1.70
2022-08-25T16:43:20.242Z,2.20
2022-08-25T16:45:22.326Z,1.70
2022-08-25T16:47:25.279Z,2.00
2022-08-25T16:49:28.984Z,1.40
2022-08-25T16:51:32.541Z,1.70
2022-08-25T16:53:52.748Z,1.70
2022-08-25T16:56:03.143Z,1.80
2022-08-25T16:58:05.324Z,1.50
2022-08-25T17:00:15.816Z,1.60
2022-08-25T17:02:17.599Z,2.00
2022-08-25T17:04:29.558Z,2.20
2022-08-25T17:06:38.477Z,1.90
2022-08-25T17:08:40.845Z,1.40
2022-08-25T17:10:43.871Z,4.40
2022-08-25T17:12:45.659Z,2.60
2022-08-25T17:14:47.478Z,1.40
2022-08-25T17:16:51.131Z,1.50
2022-08-25T17:18:55.310Z,1.70
2022-08-25T17:21:04.073Z,1.70
2022-08-25T17:23:11.965Z,2.20
2022-08-25T17:25:13.944Z,1.80
2022-08-25T17:27:15.590Z,1.60
2022-08-25T17:29:21.578Z,2.30
2022-08-25T17:31:23.990Z,1.60
2022-08-25T17:33:26.274Z,4.30
2022-08-25T17:35:29.782Z,1.40
2022-08-25T17:37:31.415Z,2.60
2022-08-25T17:39:33.082Z,1.50
2022-08-25T17:41:37.771Z,1.20
2022-08-25T17:43:41.839Z,3.80
2022-08-25T17:45:46.198Z,1.50
2022-08-25T17:47:49.996Z,2.70
2022-08-25T17:49:51.827Z,4.60
2022-08-25T17:51:53.512Z,1.50
2022-08-25T17:53:55.851Z,1.40
2022-08-25T17:56:01.013Z,2.90
2022-08-25T17:58:05.725Z,3.90
2022-08-25T18:00:12.488Z,1.50
2022-08-25T18:02:14.932Z,1.40
2022-08-25T18:04:19.545Z,2.60
2022-08-25T18:06:21.799Z,1.60
2022-08-25T18:08:27.088Z,1.40
2022-08-25T18:10:37.028Z,1.50
2022-08-25T18:12:38.982Z,1.40
2022-08-25T18:14:40.639Z,2.50
2022-08-25T18:16:43.294Z,1.10
2022-08-25T18:18:45.238Z,1.10
2022-08-25T18:20:46.952Z,1.20
2022-08-25T18:22:49.881Z,1.20
2022-08-25T18:24:52.541Z,1.20
2022-08-25T18:26:57.625Z,1.20
2022-08-25T18:29:00.010Z,1.20
2022-08-25T18:31:02.319Z,1.90
2022-08-25T18:33:04.450Z,1.70
2022-08-25T18:35:07.289Z,1.40
2022-08-25T18:37:27.787Z,1.40
2022-08-25T18:39:48.123Z,1.20
2022-08-25T18:41:50.102Z,1.90
2022-08-25T18:43:53.071Z,1.20
2022-08-25T18:45:55.206Z,3.10
2022-08-25T18:47:57.547Z,3.30
2022-08-25T18:50:03.883Z,1.10
2022-08-25T18:52:09.643Z,3.30
2022-08-25T18:54:22.875Z,1.50
2022-08-25T18:56:26.274Z,2.50
2022-08-25T18:58:28.049Z,1.80
2022-08-25T19:00:31.044Z,2.70
2022-08-25T19:02:33.739Z,1.50
2022-08-25T19:04:35.499Z,1.20
2022-08-25T19:06:37.562Z,3.30
2022-08-25T19:08:41.937Z,3.60
2022-08-25T19:10:46.128Z,2.00
2022-08-25T19:12:47.782Z,4.30
2022-08-25T19:14:51.898Z,2.20
2022-08-25T19:16:54.526Z,2.40
2022-08-25T19:18:58.373Z,4.20
2022-08-25T19:21:00.148Z,4.50
2022-08-25T19:23:02.125Z,1.30
2022-08-25T19:25:05.493Z,4.40
2022-08-25T19:27:07.486Z,2.60
2022-08-25T19:29:17.513Z,3.30
2022-08-25T19:31:23.888Z,1.60
2022-08-25T19:33:42.460Z,3.30
2022-08-25T19:35:49.154Z,5.80
2022-08-25T19:37:52.176Z,4.70
2022-08-25T19:39:54.932Z,10.00
2022-08-25T19:41:59.349Z,1.40
2022-08-25T19:46:05.978Z,5.20
2022-08-25T19:48:08.654Z,1.80
2022-08-25T19:50:14.768Z,1.20
2022-08-25T19:52:24.835Z,1.80
2022-08-25T19:54:32.755Z,1.80
2022-08-25T19:56:36.219Z,5.10
2022-08-25T19:58:38.172Z,1.70
2022-08-25T20:00:42.535Z,3.60
2022-08-25T20:04:49.792Z,3.30
2022-08-25T20:06:53.167Z,4.50
2022-08-25T20:09:00.439Z,2.80
2022-08-25T20:11:03.065Z,3.10
2022-08-25T20:13:06.164Z,4.90
2022-08-25T20:15:10.103Z,3.70
2022-08-25T20:17:23.114Z,2.10
2022-08-25T20:19:26.725Z,2.10
2022-08-25T20:21:28.468Z,2.70
2022-08-25T20:23:51.100Z,1.80
2022-08-25T20:25:52.852Z,1.80
2022-08-25T20:27:55.849Z,2.70
2022-08-25T20:29:57.498Z,5.90
2022-08-25T20:31:59.818Z,1.30
2022-08-25T20:34:03.016Z,2.20
2022-08-25T20:36:05.029Z,1.70
2022-08-25T20:38:07.638Z,1.80
2022-08-25T20:40:12.540Z,1.70
2022-08-25T20:42:14.527Z,8.90
2022-08-25T20:44:17.252Z,2.80
2022-08-25T20:46:19.281Z,2.00
2022-08-25T20:50:24.080Z,1.70
2022-08-25T20:52:26.197Z,1.80
2022-08-25T20:56:45.772Z,1.70
2022-08-25T20:58:48.982Z,2.00
2022-08-25T21:00:50.645Z,5.80
2022-08-25T21:02:55.518Z,5.70
2022-08-25T21:04:57.711Z,5.20
2022-08-25T21:07:03.002Z,4.50
2022-08-25T21:09:08.118Z,5.20
2022-08-25T21:11:18.069Z,9.00
2022-08-25T21:13:20.212Z,6.60
2022-08-25T21:15:25.450Z,7.60
2022-08-25T21:17:27.436Z,9.90
2022-08-25T21:19:31.556Z,5.90
2022-08-25T21:21:36.398Z,11.90
2022-08-25T21:23:39.562Z,8.70
2022-08-25T21:25:42.225Z,3.80
2022-08-25T21:27:43.912Z,8.20
2022-08-25T21:29:54.656Z,5.80
2022-08-25T21:31:58.744Z,6.00
2022-08-25T21:34:02.216Z,11.00
2022-08-25T21:36:09.730Z,11.80
2022-08-25T21:38:11.433Z,9.80
2022-08-25T21:40:15.973Z,6.80
2022-08-25T21:42:19.134Z,4.90
2022-08-25T21:44:21.058Z,3.70
2022-08-25T21:46:24.872Z,6.60
2022-08-25T21:48:26.720Z,5.00
2022-08-25T21:50:28.361Z,6.50
2022-08-25T21:52:48.810Z,12.20
2022-08-25T21:54:56.670Z,9.40
2022-08-25T21:59:08.591Z,14.10
2022-08-25T22:01:15.880Z,8.30
2022-08-25T22:03:17.911Z,7.00
2022-08-25T22:05:19.552Z,6.50
2022-08-25T22:07:24.656Z,4.60
2022-08-25T22:09:28.246Z,6.60
2022-08-25T22:11:33.922Z,6.10
2022-08-25T22:13:38.374Z,8.00
2022-08-25T22:15:42.917Z,7.20
2022-08-25T22:17:45.138Z,8.10
2022-08-25T22:19:53.746Z,7.40
2022-08-25T22:21:56.740Z,4.60
2022-08-25T22:23:59.330Z,7.40
2022-08-25T22:26:01.013Z,7.10
2022-08-25T22:28:05.317Z,3.50
2022-08-25T22:30:07.808Z,8.50
2022-08-25T22:32:10.797Z,12.10
2022-08-25T22:34:16.155Z,3.90
2022-08-25T22:36:27.360Z,3.70
2022-08-25T22:38:29.103Z,4.70
2022-08-25T22:40:37.750Z,6.00
2022-08-25T22:42:39.979Z,5.50
2022-08-25T22:44:44.986Z,11.70
2022-08-25T22:46:46.687Z,5.00
2022-08-25T22:48:50.497Z,3.70
2022-08-25T22:50:53.439Z,3.10
2022-08-25T22:53:11.104Z,4.60
2022-08-25T22:55:13.064Z,7.20
2022-08-25T22:57:14.730Z,4.10
2022-08-25T22:59:16.629Z,7.60
2022-08-25T23:01:20.389Z,3.80
2022-08-25T23:03:22.145Z,4.90
2022-08-25T23:05:23.814Z,3.60
2022-08-25T23:07:25.793Z,4.40
2022-08-25T23:09:27.498Z,8.00
2022-08-25T23:11:29.233Z,2.90
2022-08-25T23:13:33.802Z,6.40
2022-08-25T23:15:36.182Z,10.80
2022-08-25T23:17:38.665Z,6.30
2022-08-25T23:19:40.380Z,5.70
2022-08-25T23:22:01.535Z,8.40
2022-08-25T23:24:04.085Z,2.60
2022-08-25T23:26:06.110Z,5.10
2022-08-25T23:28:08.317Z,6.60
2022-08-25T23:30:10.672Z,6.50
2022-08-25T23:32:14.375Z,6.40
2022-08-25T23:34:16.653Z,4.00
2022-08-25T23:36:20.792Z,4.00
2022-08-25T23:38:23.742Z,7.50
2022-08-25T23:40:27.820Z,6.20
2022-08-25T23:42:29.557Z,8.20
2022-08-25T23:44:31.229Z,9.10
2022-08-25T23:46:58.018Z,5.50
2022-08-25T23:49:00.224Z,4.10
2022-08-25T23:51:01.929Z,4.50
2022-08-25T23:53:03.670Z,1.80
2022-08-25T23:55:06.322Z,4.10
2022-08-25T23:57:08.826Z,3.50
2022-08-25T23:59:10.805Z,3.00
